createdAt,value
2023-02-17T00:01:36.769Z,100647.61
2023-02-17T00:04:07.898Z,100641.34
2023-02-17T00:06:39.459Z,100643.55
2023-02-17T00:09:10.522Z,100638.98
2023-02-17T00:11:41.761Z,100633.95
2023-02-17T00:14:15.404Z,100636.67
2023-02-17T00:16:47.384Z,100633.49
2023-02-17T00:19:25.281Z,100634.35
2023-02-17T00:21:59.978Z,100629.48
2023-02-17T00:24:35.117Z,100628.14
2023-02-17T00:27:05.409Z,100633.23
2023-02-17T00:29:36.680Z,100633.77
2023-02-17T00:32:10.601Z,100633.77
2023-02-17T00:34:42.497Z,100630.05
2023-02-17T00:37:13.626Z,100628.23
2023-02-17T00:39:44.863Z,100626.04
2023-02-17T00:42:15.801Z,100620.98
2023-02-17T00:44:47.525Z,100618.61
2023-02-17T00:47:18.514Z,100614.36
2023-02-17T00:49:51.426Z,100611.33
2023-02-17T00:52:23.124Z,100611.20
2023-02-17T00:54:54.682Z,100613.91
2023-02-17T00:57:26.423Z,100607.34
2023-02-17T00:59:58.644Z,100603.10
2023-02-17T01:02:30.789Z,100599.42
2023-02-17T01:05:06.551Z,100600.79
2023-02-17T01:07:37.728Z,100596.02
2023-02-17T01:10:10.882Z,100595.48
2023-02-17T01:12:42.797Z,100595.30
2023-02-17T01:15:14.709Z,100592.10
2023-02-17T01:17:46.746Z,100587.58
2023-02-17T01:20:18.360Z,100585.23
2023-02-17T01:22:49.505Z,100582.20
2023-02-17T01:25:21.080Z,100580.54
2023-02-17T01:27:52.944Z,100578.02
2023-02-17T01:30:25.231Z,100571.77
2023-02-17T01:32:56.484Z,100568.91
2023-02-17T01:35:27.698Z,100560.29
2023-02-17T01:37:58.736Z,100565.38
2023-02-17T01:40:30.380Z,100565.41
2023-02-17T01:43:02.060Z,100555.59
2023-02-17T01:45:47.786Z,100552.91
2023-02-17T01:48:22.556Z,100552.41
2023-02-17T01:50:59.532Z,100558.34
2023-02-17T01:53:36.764Z,100559.37
2023-02-17T01:56:10.992Z,100559.23
2023-02-17T01:58:46.169Z,100555.34
2023-02-17T02:01:18.298Z,100551.98
2023-02-17T02:03:50.513Z,100552.66
2023-02-17T02:06:25.050Z,100553.88
2023-02-17T02:09:00.723Z,100549.50
2023-02-17T02:11:33.184Z,100547.83
2023-02-17T02:14:06.928Z,100550.73
2023-02-17T02:16:50.046Z,100544.48
2023-02-17T02:19:38.838Z,100542.98
2023-02-17T02:22:38.769Z,100538.07
2023-02-17T02:25:25.403Z,100534.70
2023-02-17T02:28:06.606Z,100532.84
2023-02-17T02:30:53.736Z,100534.72
2023-02-17T02:33:33.839Z,100534.56
2023-02-17T02:36:12.584Z,100535.27
2023-02-17T02:38:48.806Z,100538.31
2023-02-17T02:41:24.249Z,100540.17
2023-02-17T02:43:56.101Z,100542.20
2023-02-17T02:46:27.302Z,100540.02
2023-02-17T02:48:58.442Z,100535.11
2023-02-17T02:51:40.659Z,100532.27
2023-02-17T02:54:38.256Z,100529.09
2023-02-17T02:57:31.976Z,100524.06
2023-02-17T03:00:13.289Z,100517.82
2023-02-17T03:02:52.464Z,100517.14
2023-02-17T03:05:34.132Z,100523.60
2023-02-17T03:08:09.890Z,100529.73
2023-02-17T03:10:48.434Z,100525.86
2023-02-17T03:13:20.586Z,100526.05
2023-02-17T03:15:51.952Z,100522.17
2023-02-17T03:18:22.958Z,100516.98
2023-02-17T03:20:59.227Z,100524.75
2023-02-17T03:23:30.237Z,100527.81
2023-02-17T03:26:01.195Z,100526.80
2023-02-17T03:28:33.229Z,100526.30
2023-02-17T03:31:05.346Z,100522.61
2023-02-17T03:33:36.575Z,100526.67
2023-02-17T03:36:08.970Z,100525.31
2023-02-17T03:38:40.060Z,100520.09
2023-02-17T03:41:11.235Z,100517.90
2023-02-17T03:43:42.275Z,100518.08
2023-02-17T03:46:16.426Z,100525.52
2023-02-17T03:48:47.726Z,100528.92
2023-02-17T03:51:22.355Z,100524.36
2023-02-17T03:53:53.760Z,100524.02
2023-02-17T03:56:25.213Z,100520.45
2023-02-17T03:58:56.296Z,100516.02
2023-02-17T04:01:27.470Z,100513.46
2023-02-17T04:03:58.536Z,100505.83
2023-02-17T04:06:29.980Z,100499.55
2023-02-17T04:09:00.905Z,100496.35
2023-02-17T04:11:32.581Z,100499.95
2023-02-17T04:14:03.696Z,100497.76
2023-02-17T04:16:34.722Z,100498.63
2023-02-17T04:19:06.375Z,100504.92
2023-02-17T04:21:37.520Z,100509.86
2023-02-17T04:24:08.966Z,100512.29
2023-02-17T04:26:40.221Z,100509.26
2023-02-17T04:29:11.203Z,100509.09
2023-02-17T04:31:42.499Z,100507.40
2023-02-17T04:34:13.582Z,100496.54
2023-02-17T04:36:44.666Z,100487.73
2023-02-17T04:39:15.729Z,100486.37
2023-02-17T04:41:46.867Z,100486.88
2023-02-17T04:44:17.953Z,100482.45
2023-02-17T04:46:48.914Z,100492.45
2023-02-17T04:49:19.852Z,100484.84
2023-02-17T04:51:50.885Z,100480.10
2023-02-17T04:54:23.437Z,100478.60
2023-02-17T04:56:54.963Z,100476.59
2023-02-17T04:59:26.031Z,100471.84
2023-02-17T05:01:57.176Z,100459.97
2023-02-17T05:04:28.968Z,100452.35
2023-02-17T05:07:01.035Z,100451.00
2023-02-17T05:09:32.258Z,100454.90
2023-02-17T05:12:05.672Z,100459.15
2023-02-17T05:14:41.189Z,100459.84
2023-02-17T05:17:12.203Z,100455.27
2023-02-17T05:19:43.171Z,100449.13
2023-02-17T05:22:15.641Z,100449.64
2023-02-17T05:24:46.574Z,100449.65
2023-02-17T05:27:17.528Z,100442.67
2023-02-17T05:29:56.576Z,100443.36
2023-02-17T05:32:27.520Z,100444.86
2023-02-17T05:34:58.460Z,100441.44
2023-02-17T05:37:29.462Z,100437.37
2023-02-17T05:40:00.492Z,100433.11
2023-02-17T05:42:37.703Z,100434.63
2023-02-17T05:45:09.580Z,100436.34
2023-02-17T05:47:40.510Z,100426.85
2023-02-17T05:50:14.433Z,100426.02
2023-02-17T05:52:48.161Z,100424.98
2023-02-17T05:55:24.451Z,100423.63
2023-02-17T05:58:16.381Z,100423.81
2023-02-17T06:00:48.119Z,100421.41
2023-02-17T06:03:20.393Z,100416.02
2023-02-17T06:05:53.938Z,100412.95
2023-02-17T06:08:24.969Z,100421.10
2023-02-17T06:11:18.978Z,100421.13
2023-02-17T06:13:50.120Z,100426.02
2023-02-17T06:16:23.433Z,100430.79
2023-02-17T06:19:18.726Z,100423.48
2023-02-17T06:21:49.698Z,100423.49
2023-02-17T06:25:03.871Z,100425.38
2023-02-17T06:27:35.276Z,100422.67
2023-02-17T06:30:30.720Z,100424.90
2023-02-17T06:33:05.753Z,100428.48
2023-02-17T06:35:37.008Z,100423.42
2023-02-17T06:38:30.305Z,100418.87
2023-02-17T06:41:01.442Z,100411.77
2023-02-17T06:43:32.567Z,100410.59
2023-02-17T06:46:09.507Z,100409.73
2023-02-17T06:48:43.742Z,100404.66
2023-02-17T06:51:18.874Z,100407.02
2023-02-17T06:53:55.434Z,100410.06
2023-02-17T06:56:26.672Z,100412.47
2023-02-17T06:58:57.996Z,100408.79
2023-02-17T07:01:29.439Z,100408.15
2023-02-17T07:04:01.231Z,100398.52
2023-02-17T07:06:34.837Z,100396.20
2023-02-17T07:09:56.226Z,100393.02
2023-02-17T07:12:29.044Z,100399.86
2023-02-17T07:15:22.126Z,100404.16
2023-02-17T07:18:19.337Z,100399.65
2023-02-17T07:20:50.477Z,100394.15
2023-02-17T07:23:21.594Z,100392.55
2023-02-17T07:25:55.178Z,100390.40
2023-02-17T07:28:26.979Z,100392.02
2023-02-17T07:30:58.346Z,100391.80
2023-02-17T07:33:30.374Z,100389.50
2023-02-17T07:36:05.808Z,100392.60
2023-02-17T07:38:39.530Z,100391.64
2023-02-17T07:41:24.843Z,100392.19
2023-02-17T07:43:59.047Z,100388.29
2023-02-17T07:46:31.189Z,100385.92
2023-02-17T07:49:02.179Z,100388.46
2023-02-17T07:51:36.912Z,100389.81
2023-02-17T07:54:08.326Z,100390.84
2023-02-17T07:56:39.435Z,100386.26
2023-02-17T07:59:17.811Z,100383.89
2023-02-17T08:01:51.929Z,100386.11
2023-02-17T08:04:25.750Z,100385.63
2023-02-17T08:06:57.103Z,100385.13
2023-02-17T08:09:48.875Z,100382.77
2023-02-17T08:12:39.189Z,100377.38
2023-02-17T08:15:13.528Z,100376.55
2023-02-17T08:17:58.499Z,100375.38
2023-02-17T08:20:33.112Z,100376.77
2023-02-17T08:23:12.900Z,100377.78
2023-02-17T08:25:44.004Z,100375.06
2023-02-17T08:28:18.207Z,100371.85
2023-02-17T08:30:52.987Z,100371.86
2023-02-17T08:33:24.231Z,100369.83
2023-02-17T08:35:55.607Z,100364.23
2023-02-17T08:38:27.308Z,100363.89
2023-02-17T08:40:58.404Z,100362.38
2023-02-17T08:43:40.531Z,100355.76
2023-02-17T08:46:14.013Z,100355.26
2023-02-17T08:48:46.005Z,100349.67
2023-02-17T08:51:27.989Z,100354.13
2023-02-17T08:54:13.162Z,100350.91
2023-02-17T08:56:44.031Z,100345.67
2023-02-17T08:59:15.711Z,100342.48
2023-02-17T09:22:31.916Z,100343.50
2023-02-17T09:25:00.978Z,100345.88
2023-02-17T09:27:31.065Z,100339.40
2023-02-17T09:30:04.496Z,100333.61
2023-02-17T09:32:33.195Z,100332.58
2023-02-17T09:38:46.236Z,100325.42
2023-02-17T09:41:39.355Z,100321.50
2023-02-17T09:44:17.472Z,100316.73
2023-02-17T09:47:18.616Z,100310.77
2023-02-17T09:49:52.245Z,100310.09
2023-02-17T09:52:26.240Z,100304.48
2023-02-17T09:55:03.600Z,100298.52
2023-02-17T09:57:37.238Z,100297.15
2023-02-17T10:00:49.297Z,100290.70
2023-02-17T10:03:24.014Z,100293.92
2023-02-17T10:05:56.922Z,100294.10
2023-02-17T10:08:45.259Z,100288.48
2023-02-17T10:11:42.926Z,100285.59
2023-02-17T10:14:18.187Z,100290.52
2023-02-17T10:16:51.859Z,100290.68
2023-02-17T10:19:27.266Z,100286.60
2023-02-17T10:22:03.332Z,100284.05
2023-02-17T10:24:31.946Z,100278.77
2023-02-17T10:27:22.369Z,100281.82
2023-02-17T10:30:05.779Z,100277.40
2023-02-17T10:32:56.869Z,100269.40
2023-02-17T10:35:38.145Z,100269.56
2023-02-17T10:38:15.490Z,100266.51
2023-02-17T10:40:51.321Z,100259.01
2023-02-17T10:43:26.560Z,100253.58
2023-02-17T10:45:55.766Z,100240.48
2023-02-17T10:48:32.576Z,100236.91
2023-02-17T10:51:01.826Z,100230.61
2023-02-17T10:53:34.576Z,100228.58
2023-02-17T10:56:08.764Z,100225.02
2023-02-17T10:58:42.956Z,100221.11
2023-02-17T11:01:18.517Z,100216.19
2023-02-17T11:03:47.236Z,100213.13
2023-02-17T11:06:21.688Z,100204.44
2023-02-17T11:08:56.054Z,100196.12
2023-02-17T11:11:29.953Z,100193.05
2023-02-17T11:14:13.454Z,100187.59
2023-02-17T11:16:46.566Z,100179.07
2023-02-17T11:19:25.096Z,100172.77
2023-02-17T11:21:55.673Z,100166.30
2023-02-17T11:24:25.405Z,100161.03
2023-02-17T11:27:00.002Z,100156.11
2023-02-17T11:29:30.065Z,100152.19
2023-02-17T11:32:04.213Z,100140.11
2023-02-17T11:34:36.026Z,100135.87
2023-02-17T11:37:21.491Z,100127.52
2023-02-17T11:39:52.837Z,100118.00
2023-02-17T11:42:23.136Z,100107.96
2023-02-17T11:45:17.489Z,100105.59
2023-02-17T11:47:59.078Z,100105.09
2023-02-17T11:50:41.740Z,100101.01
2023-02-17T11:53:26.347Z,100097.10
2023-02-17T11:56:13.860Z,100096.08
2023-02-17T11:59:15.813Z,100089.95
2023-02-17T12:02:02.009Z,100086.39
2023-02-17T12:04:32.045Z,100079.60
2023-02-17T12:07:29.720Z,100073.30
2023-02-17T12:10:06.479Z,100060.38
2023-02-17T12:12:51.428Z,100057.14
2023-02-17T12:15:36.708Z,100054.59
2023-02-17T12:18:40.416Z,100040.64
2023-02-17T12:21:15.961Z,100032.30
2023-02-17T12:24:05.777Z,100023.64
2023-02-17T12:26:46.913Z,100007.14
2023-02-17T12:29:30.643Z,100001.36
2023-02-17T12:32:18.134Z,99990.98
2023-02-17T12:34:54.683Z,99986.23
2023-02-17T12:37:27.261Z,99979.59
2023-02-17T12:40:02.371Z,99972.45
2023-02-17T12:42:35.141Z,99970.23
2023-02-17T12:45:08.385Z,99971.77
2023-02-17T12:48:01.708Z,99967.36
2023-02-17T12:50:37.431Z,99969.90
2023-02-17T12:54:09.131Z,99969.22
2023-02-17T12:57:11.659Z,99961.90
2023-02-17T12:59:51.976Z,99959.52
2023-02-17T13:02:22.662Z,99955.44
2023-02-17T13:04:53.647Z,99946.08
2023-02-17T13:07:33.289Z,99939.11
2023-02-17T13:10:02.831Z,99937.92
2023-02-17T13:12:35.711Z,99933.33
2023-02-17T13:15:23.011Z,99934.19
2023-02-17T13:18:00.797Z,99928.92
2023-02-17T13:20:45.256Z,99919.39
2023-02-17T13:23:26.962Z,99915.64
2023-02-17T13:26:13.312Z,99909.35
2023-02-17T13:28:42.759Z,99906.28
2023-02-17T13:31:18.633Z,99901.86
2023-02-17T13:33:52.480Z,99901.18
2023-02-17T13:36:35.013Z,99896.41
2023-02-17T13:39:08.516Z,99896.42
2023-02-17T13:41:47.886Z,99886.21
2023-02-17T13:44:28.441Z,99885.53
2023-02-17T13:47:00.820Z,99882.30
2023-02-17T13:49:34.522Z,99881.27
2023-02-17T13:52:15.805Z,99880.42
2023-02-17T13:54:53.463Z,99882.13
2023-02-17T13:57:29.385Z,99870.08
2023-02-17T14:00:21.688Z,99868.38
2023-02-17T14:03:18.909Z,99861.94
2023-02-17T14:05:51.825Z,99861.09
2023-02-17T14:08:26.858Z,99860.41
2023-02-17T14:10:56.450Z,99855.48
2023-02-17T14:13:25.862Z,99849.87
2023-02-17T14:16:06.997Z,99843.06
2023-02-17T14:18:39.384Z,99833.54
2023-02-17T14:21:26.999Z,99829.11
2023-02-17T14:23:58.685Z,99816.88
2023-02-17T14:26:35.700Z,99809.55
2023-02-17T14:29:06.667Z,99804.63
2023-02-17T14:31:40.069Z,99801.91
2023-02-17T14:34:24.152Z,99791.20
2023-02-17T14:36:52.446Z,99786.60
2023-02-17T14:39:21.539Z,99784.05
2023-02-17T14:41:50.364Z,99769.95
2023-02-17T14:44:19.100Z,99764.67
2023-02-17T14:46:47.660Z,99759.05
2023-02-17T14:49:15.964Z,99745.11
2023-02-17T14:51:44.313Z,99746.81
2023-02-17T14:54:15.487Z,99741.39
2023-02-17T14:56:48.307Z,99734.94
2023-02-17T14:59:17.348Z,99730.36
2023-02-17T15:01:47.936Z,99722.36
2023-02-17T15:04:16.342Z,99720.67
2023-02-17T15:06:47.478Z,99716.95
2023-02-17T15:09:17.372Z,99713.39
2023-02-17T15:11:48.337Z,99702.83
2023-02-17T15:14:19.514Z,99705.05
2023-02-17T15:16:48.970Z,99698.59
2023-02-17T15:19:17.895Z,99694.66
2023-02-17T15:21:49.068Z,99693.30
2023-02-17T15:24:20.880Z,99691.11
2023-02-17T15:26:49.235Z,99689.75
2023-02-17T15:29:22.530Z,99682.10
2023-02-17T15:31:53.708Z,99676.48
2023-02-17T15:34:25.311Z,99667.30
2023-02-17T15:36:53.919Z,99661.36
2023-02-17T15:39:22.126Z,99656.09
2023-02-17T15:41:52.309Z,99649.28
2023-02-17T15:44:23.863Z,99641.46
2023-02-17T15:46:55.537Z,99629.73
2023-02-17T15:49:25.509Z,99627.34
2023-02-17T15:51:53.830Z,99621.91
2023-02-17T15:54:22.565Z,99618.33
2023-02-17T15:56:53.533Z,99611.02
2023-02-17T15:59:25.604Z,99608.98
2023-02-17T16:01:55.445Z,99600.65
2023-02-17T16:04:23.633Z,99601.32
2023-02-17T16:06:52.726Z,99594.34
2023-02-17T16:09:22.430Z,99590.44
2023-02-17T16:11:53.453Z,99584.83
2023-02-17T16:14:28.262Z,99577.85
2023-02-17T16:16:56.534Z,99581.75
2023-02-17T16:19:25.396Z,99572.06
2023-02-17T16:21:53.682Z,99565.78
2023-02-17T16:24:21.872Z,99561.02
2023-02-17T16:26:50.297Z,99559.15
2023-02-17T16:29:20.976Z,99554.04
2023-02-17T16:31:50.307Z,99548.94
2023-02-17T16:34:21.385Z,99542.30
2023-02-17T16:36:50.694Z,99541.95
2023-02-17T16:39:21.116Z,99540.45
2023-02-17T16:41:49.893Z,99540.28
2023-02-17T16:44:22.445Z,99534.34
2023-02-17T16:46:52.619Z,99533.48
2023-02-17T16:49:31.257Z,99526.16
2023-02-17T16:52:00.365Z,99518.69
2023-02-17T16:54:28.750Z,99510.69
2023-02-17T16:56:58.227Z,99503.73
2023-02-17T16:59:27.715Z,99496.73
2023-02-17T17:01:56.303Z,99490.28
2023-02-17T17:04:24.713Z,99493.31
2023-02-17T17:06:53.397Z,99486.16
2023-02-17T17:09:23.877Z,99476.30
2023-02-17T17:11:52.116Z,99477.48
2023-02-17T17:14:21.895Z,99467.77
2023-02-17T17:16:55.315Z,99453.83
2023-02-17T17:19:23.789Z,99455.68
2023-02-17T17:21:52.195Z,99448.38
2023-02-17T17:24:21.167Z,99445.48
2023-02-17T17:26:51.074Z,99442.23
2023-02-17T17:29:20.252Z,99439.69
2023-02-17T17:31:49.035Z,99433.21
2023-02-17T17:34:17.518Z,99429.29
2023-02-17T17:36:47.272Z,99417.55
2023-02-17T17:39:17.283Z,99408.88
2023-02-17T17:41:46.131Z,99400.55
2023-02-17T17:44:16.189Z,99388.48
2023-02-17T17:46:44.837Z,99383.20
2023-02-17T17:49:16.129Z,99381.33
2023-02-17T17:51:45.547Z,99380.66
2023-02-17T17:54:13.817Z,99378.75
2023-02-17T17:56:43.270Z,99373.30
2023-02-17T17:59:22.874Z,99366.48
2023-02-17T18:01:51.396Z,99365.97
2023-02-17T18:04:19.736Z,99371.59
2023-02-17T18:06:51.198Z,99365.45
2023-02-17T18:09:31.404Z,99354.36
2023-02-17T18:12:07.216Z,99352.32
2023-02-17T18:14:38.578Z,99344.15
2023-02-17T18:17:08.865Z,99350.10
2023-02-17T18:19:37.585Z,99339.54
2023-02-17T18:22:06.347Z,99346.33
2023-02-17T18:24:37.089Z,99340.89
2023-02-17T18:27:10.470Z,99334.41
2023-02-17T18:29:38.843Z,99328.79
2023-02-17T18:32:07.197Z,99324.52
2023-02-17T18:34:35.883Z,99311.58
2023-02-17T18:37:04.503Z,99311.73
2023-02-17T18:39:33.392Z,99317.47
2023-02-17T18:42:09.862Z,99314.91
2023-02-17T18:44:38.594Z,99310.81
2023-02-17T18:47:06.856Z,99306.00
2023-02-17T18:49:35.591Z,99302.58
2023-02-17T18:52:04.140Z,99299.34
2023-02-17T18:54:32.452Z,99309.35
2023-02-17T18:57:17.603Z,99306.10
2023-02-17T18:59:46.163Z,99295.71
2023-02-17T19:02:15.262Z,99285.99
2023-02-17T19:04:43.793Z,99285.64
2023-02-17T19:07:12.233Z,99291.77
2023-02-17T19:09:42.673Z,99288.86
2023-02-17T19:12:13.234Z,99283.06
2023-02-17T19:14:44.114Z,99276.91
2023-02-17T19:17:13.006Z,99268.88
2023-02-17T19:19:41.951Z,99279.21
2023-02-17T19:22:10.803Z,99267.98
2023-02-17T19:24:40.809Z,99264.02
2023-02-17T19:27:09.858Z,99268.40
2023-02-17T19:29:38.267Z,99266.16
2023-02-17T19:32:28.216Z,99265.27
2023-02-17T19:35:16.766Z,99262.83
2023-02-17T19:38:02.997Z,99256.85
2023-02-17T19:41:09.939Z,99254.77
2023-02-17T19:44:00.315Z,99256.39
2023-02-17T19:46:54.666Z,99248.50
2023-02-17T19:49:47.113Z,99248.75
2023-02-17T19:52:20.251Z,99244.75
2023-02-17T19:55:11.388Z,99239.41
2023-02-17T19:57:49.895Z,99242.42
2023-02-17T20:00:44.296Z,99246.45
2023-02-17T20:03:15.590Z,99248.06
2023-02-17T20:05:46.316Z,99240.84
2023-02-17T20:08:17.329Z,99245.34
2023-02-17T20:10:47.689Z,99234.37
2023-02-17T20:13:16.068Z,99233.45
2023-02-17T20:15:44.691Z,99237.45
2023-02-17T20:18:13.255Z,99232.44
2023-02-17T20:20:45.410Z,99225.55
2023-02-17T20:23:14.397Z,99228.02
2023-02-17T20:25:42.584Z,99225.05
2023-02-17T20:28:11.150Z,99228.02
2023-02-17T20:31:09.003Z,99227.60
2023-02-17T20:33:56.346Z,99222.91
2023-02-17T20:36:33.456Z,99219.27
2023-02-17T20:39:10.716Z,99220.73
2023-02-17T20:41:48.090Z,99222.17
2023-02-17T20:44:43.289Z,99218.87
2023-02-17T20:47:49.439Z,99217.93
2023-02-17T20:50:28.627Z,99220.40
2023-02-17T20:53:25.512Z,99218.99
2023-02-17T20:56:17.858Z,99213.81
2023-02-17T20:58:59.268Z,99205.27
2023-02-17T21:01:47.604Z,99205.25
2023-02-17T21:04:22.470Z,99202.13
2023-02-17T21:06:59.370Z,99191.55
2023-02-17T21:10:00.356Z,99189.66
2023-02-17T21:12:32.068Z,99183.66
2023-02-17T21:15:12.923Z,99176.67
2023-02-17T21:17:48.990Z,99177.05
2023-02-17T21:20:39.149Z,99185.08
2023-02-17T21:23:24.972Z,99188.98
2023-02-17T21:26:13.274Z,99185.36
2023-02-17T21:29:01.058Z,99173.08
2023-02-17T21:31:36.757Z,99173.04
2023-02-17T21:34:09.728Z,99172.17
2023-02-17T21:36:46.383Z,99176.92
2023-02-17T21:39:18.745Z,99173.48
2023-02-17T21:41:48.811Z,99171.04
2023-02-17T21:44:38.491Z,99171.02
2023-02-17T21:47:07.528Z,99174.92
2023-02-17T21:49:36.440Z,99177.15
2023-02-17T21:52:05.485Z,99179.68
2023-02-17T21:54:34.375Z,99185.48
2023-02-17T21:57:04.416Z,99191.58
2023-02-17T21:59:33.253Z,99188.66
2023-02-17T22:02:01.476Z,99190.38
2023-02-17T22:04:30.724Z,99184.54
2023-02-17T22:06:59.496Z,99188.67
2023-02-17T22:09:27.739Z,99214.45
2023-02-17T22:11:56.075Z,99196.60
2023-02-17T22:14:25.574Z,99200.59
2023-02-17T22:16:54.373Z,99192.97
2023-02-17T22:19:24.328Z,99194.56
2023-02-17T22:21:53.867Z,99206.23
2023-02-17T22:24:22.354Z,99204.27
2023-02-17T22:26:50.839Z,99206.89
2023-02-17T22:29:19.254Z,99206.63
2023-02-17T22:31:49.818Z,99208.08
2023-02-17T22:34:18.375Z,99198.36
2023-02-17T22:36:49.558Z,99197.82
2023-02-17T22:39:18.128Z,99201.05
2023-02-17T22:41:46.495Z,99199.64
2023-02-17T22:44:14.720Z,99193.30
2023-02-17T22:46:43.071Z,99200.75
2023-02-17T22:49:11.343Z,99199.31
2023-02-17T22:51:40.311Z,99206.38
2023-02-17T22:54:09.393Z,99210.74
2023-02-17T22:56:38.048Z,99205.52
2023-02-17T22:59:06.868Z,99202.36
2023-02-17T23:01:36.713Z,99210.60
2023-02-17T23:04:06.152Z,99214.42
2023-02-17T23:06:39.518Z,99221.33
2023-02-17T23:09:12.014Z,99221.76
2023-02-17T23:11:50.695Z,99224.73
2023-02-17T23:14:22.128Z,99224.11
2023-02-17T23:16:50.625Z,99221.64
2023-02-17T23:19:21.411Z,99230.70
2023-02-17T23:21:52.860Z,99231.61
2023-02-17T23:24:22.536Z,99230.60
2023-02-17T23:26:52.083Z,99223.68
2023-02-17T23:29:20.679Z,99226.94
2023-02-17T23:31:49.449Z,99225.29
2023-02-17T23:34:17.935Z,99222.77
2023-02-17T23:36:46.968Z,99231.47
2023-02-17T23:39:16.517Z,99230.32
2023-02-17T23:41:45.384Z,99231.70
2023-02-17T23:44:14.844Z,99233.45
2023-02-17T23:46:44.740Z,99232.15
2023-02-17T23:49:15.591Z,99249.18
2023-02-17T23:51:46.279Z,99245.28
2023-02-17T23:54:14.966Z,99247.84
2023-02-17T23:56:43.684Z,99241.88
2023-02-17T23:59:14.288Z,99235.58
